sensor_id;sensor_type;location;lat;lon;timestamp;pressure;altitude;pressure_sealevel;temperature;humidity
38939;BME280;24211;49.980;19.776;2023-07-16T00:02:19;99033.22;;;26.11;99.98
38939;BME280;24211;49.980;19.776;2023-07-16T00:04:46;99026.97;;;26.02;100.00
38939;BME280;24211;49.980;19.776;2023-07-16T00:07:14;99023.91;;;26.04;100.00
38939;BME280;24211;49.980;19.776;2023-07-16T00:09:41;99017.53;;;25.91;100.00
38939;BME280;24211;49.980;19.776;2023-07-16T00:12:08;99022.41;;;25.85;100.00
38939;BME280;24211;49.980;19.776;2023-07-16T00:14:36;99024.88;;;25.78;100.00
38939;BME280;24211;49.980;19.776;2023-07-16T00:17:03;99028.75;;;25.77;100.00
38939;BME280;24211;49.980;19.776;2023-07-16T00:19:30;99027.97;;;25.68;100.00
38939;BME280;24211;49.980;19.776;2023-07-16T00:21:57;99028.03;;;25.60;100.00
38939;BME280;24211;49.980;19.776;2023-07-16T00:24:25;99030.81;;;25.51;100.00
38939;BME280;24211;49.980;19.776;2023-07-16T00:26:53;99023.75;;;25.50;100.00
38939;BME280;24211;49.980;19.776;2023-07-16T00:29:20;99020.19;;;25.41;100.00
38939;BME280;24211;49.980;19.776;2023-07-16T00:31:47;99017.00;;;25.39;100.00
38939;BME280;24211;49.980;19.776;2023-07-16T00:34:14;99013.00;;;25.37;100.00
38939;BME280;24211;49.980;19.776;2023-07-16T00:36:41;99008.66;;;25.36;100.00
38939;BME280;24211;49.980;19.776;2023-07-16T00:39:09;99010.94;;;25.25;100.00
38939;BME280;24211;49.980;19.776;2023-07-16T00:41:37;99028.38;;;25.12;100.00
38939;BME280;24211;49.980;19.776;2023-07-16T00:44:04;99008.94;;;25.05;100.00
38939;BME280;24211;49.980;19.776;2023-07-16T00:46:31;99018.06;;;25.09;100.00
38939;BME280;24211;49.980;19.776;2023-07-16T00:48:59;99009.75;;;24.97;100.00
38939;BME280;24211;49.980;19.776;2023-07-16T00:51:27;99003.19;;;24.89;100.00
38939;BME280;24211;49.980;19.776;2023-07-16T00:53:55;99007.53;;;24.82;100.00
38939;BME280;24211;49.980;19.776;2023-07-16T00:56:22;99011.41;;;24.81;100.00
38939;BME280;24211;49.980;19.776;2023-07-16T00:58:49;99009.47;;;24.73;100.00
38939;BME280;24211;49.980;19.776;2023-07-16T01:01:16;99009.16;;;24.65;100.00
38939;BME280;24211;49.980;19.776;2023-07-16T01:03:45;99006.59;;;24.60;100.00
38939;BME280;24211;49.980;19.776;2023-07-16T01:06:25;99019.13;;;24.61;100.00
38939;BME280;24211;49.980;19.776;2023-07-16T01:09:04;99006.28;;;24.53;100.00
38939;BME280;24211;49.980;19.776;2023-07-16T01:11:35;99012.25;;;24.47;100.00
38939;BME280;24211;49.980;19.776;2023-07-16T01:14:07;98999.38;;;24.39;100.00
38939;BME280;24211;49.980;19.776;2023-07-16T01:16:35;99010.66;;;24.37;100.00
38939;BME280;24211;49.980;19.776;2023-07-16T01:19:03;98999.38;;;24.30;100.00
38939;BME280;24211;49.980;19.776;2023-07-16T01:22:27;98990.88;;;24.23;100.00
38939;BME280;24211;49.980;19.776;2023-07-16T01:28:23;98996.19;;;24.11;100.00
38939;BME280;24211;49.980;19.776;2023-07-16T01:30:55;98992.50;;;24.07;100.00
38939;BME280;24211;49.980;19.776;2023-07-16T01:33:23;98987.03;;;24.07;100.00
38939;BME280;24211;49.980;19.776;2023-07-16T01:35:51;98981.84;;;23.97;100.00
38939;BME280;24211;49.980;19.776;2023-07-16T01:38:19;98977.66;;;23.91;100.00
38939;BME280;24211;49.980;19.776;2023-07-16T01:40:47;98983.44;;;23.89;100.00
38939;BME280;24211;49.980;19.776;2023-07-16T01:43:15;98984.41;;;23.85;100.00
38939;BME280;24211;49.980;19.776;2023-07-16T01:45:42;98981.84;;;23.80;100.00
38939;BME280;24211;49.980;19.776;2023-07-16T01:48:31;98977.00;;;23.77;100.00
38939;BME280;24211;49.980;19.776;2023-07-16T01:50:59;98975.06;;;23.69;100.00
38939;BME280;24211;49.980;19.776;2023-07-16T01:53:28;98974.09;;;23.65;100.00
38939;BME280;24211;49.980;19.776;2023-07-16T01:55:55;98979.22;;;23.58;100.00
38939;BME280;24211;49.980;19.776;2023-07-16T01:58:23;98979.38;;;23.53;100.00
38939;BME280;24211;49.980;19.776;2023-07-16T02:00:51;98980.00;;;23.50;100.00
38939;BME280;24211;49.980;19.776;2023-07-16T02:03:18;98980.47;;;23.52;100.00
38939;BME280;24211;49.980;19.776;2023-07-16T02:05:45;98969.91;;;23.42;100.00
38939;BME280;24211;49.980;19.776;2023-07-16T02:08:13;98982.53;;;23.37;100.00
38939;BME280;24211;49.980;19.776;2023-07-16T02:10:40;98992.44;;;23.33;100.00
38939;BME280;24211;49.980;19.776;2023-07-16T02:13:07;98990.97;;;23.27;100.00
38939;BME280;24211;49.980;19.776;2023-07-16T02:15:35;98993.84;;;23.22;100.00
38939;BME280;24211;49.980;19.776;2023-07-16T02:18:04;98991.09;;;23.22;100.00
38939;BME280;24211;49.980;19.776;2023-07-16T02:20:34;98992.88;;;23.18;100.00
38939;BME280;24211;49.980;19.776;2023-07-16T02:23:02;98985.94;;;23.12;100.00
38939;BME280;24211;49.980;19.776;2023-07-16T02:25:29;98976.78;;;23.08;100.00
38939;BME280;24211;49.980;19.776;2023-07-16T02:27:56;98983.47;;;23.02;100.00
38939;BME280;24211;49.980;19.776;2023-07-16T02:30:23;98984.75;;;22.96;100.00
38939;BME280;24211;49.980;19.776;2023-07-16T02:32:50;98984.88;;;22.91;100.00
38939;BME280;24211;49.980;19.776;2023-07-16T02:35:18;98981.66;;;22.89;100.00
38939;BME280;24211;49.980;19.776;2023-07-16T02:37:45;98988.84;;;22.85;100.00
38939;BME280;24211;49.980;19.776;2023-07-16T02:40:12;98981.59;;;22.72;100.00
38939;BME280;24211;49.980;19.776;2023-07-16T02:42:42;98983.94;;;22.65;100.00
38939;BME280;24211;49.980;19.776;2023-07-16T02:45:09;98983.56;;;22.58;100.00
38939;BME280;24211;49.980;19.776;2023-07-16T02:47:36;98983.56;;;22.58;100.00
38939;BME280;24211;49.980;19.776;2023-07-16T02:50:04;98989.78;;;22.58;100.00
38939;BME280;24211;49.980;19.776;2023-07-16T02:52:32;98988.00;;;22.54;100.00
38939;BME280;24211;49.980;19.776;2023-07-16T02:54:59;98987.81;;;22.50;100.00
38939;BME280;24211;49.980;19.776;2023-07-16T02:57:27;98978.47;;;22.43;100.00
38939;BME280;24211;49.980;19.776;2023-07-16T02:59:55;98984.53;;;22.40;100.00
38939;BME280;24211;49.980;19.776;2023-07-16T03:02:22;98984.66;;;22.35;100.00
38939;BME280;24211;49.980;19.776;2023-07-16T03:04:49;98982.66;;;22.27;100.00
38939;BME280;24211;49.980;19.776;2023-07-16T03:07:16;98988.72;;;22.24;100.00
38939;BME280;24211;49.980;19.776;2023-07-16T03:09:43;98985.09;;;22.28;100.00
38939;BME280;24211;49.980;19.776;2023-07-16T03:12:11;98982.31;;;22.20;100.00
38939;BME280;24211;49.980;19.776;2023-07-16T03:14:38;98990.59;;;22.14;100.00
38939;BME280;24211;49.980;19.776;2023-07-16T03:17:07;98995.53;;;22.12;100.00
38939;BME280;24211;49.980;19.776;2023-07-16T03:19:34;98997.78;;;22.10;100.00
38939;BME280;24211;49.980;19.776;2023-07-16T03:22:03;99001.09;;;22.07;100.00
38939;BME280;24211;49.980;19.776;2023-07-16T03:24:30;98998.69;;;22.06;100.00
38939;BME280;24211;49.980;19.776;2023-07-16T03:26:58;99000.13;;;22.03;100.00
38939;BME280;24211;49.980;19.776;2023-07-16T03:29:43;98992.44;;;22.05;100.00
38939;BME280;24211;49.980;19.776;2023-07-16T03:32:14;98987.38;;;22.12;100.00
38939;BME280;24211;49.980;19.776;2023-07-16T03:34:41;99003.50;;;22.09;100.00
38939;BME280;24211;49.980;19.776;2023-07-16T03:37:08;99007.16;;;22.04;100.00
38939;BME280;24211;49.980;19.776;2023-07-16T03:39:35;99004.91;;;22.06;100.00
38939;BME280;24211;49.980;19.776;2023-07-16T03:42:04;99002.72;;;22.08;100.00
38939;BME280;24211;49.980;19.776;2023-07-16T03:44:31;99006.75;;;22.11;100.00
38939;BME280;24211;49.980;19.776;2023-07-16T03:47:01;99001.47;;;22.14;100.00
38939;BME280;24211;49.980;19.776;2023-07-16T03:49:40;98998.13;;;22.18;100.00
38939;BME280;24211;49.980;19.776;2023-07-16T03:52:08;98996.59;;;22.25;100.00
38939;BME280;24211;49.980;19.776;2023-07-16T03:54:35;98999.22;;;22.30;100.00
38939;BME280;24211;49.980;19.776;2023-07-16T03:57:05;98997.97;;;22.36;100.00
38939;BME280;24211;49.980;19.776;2023-07-16T03:59:32;99004.59;;;22.44;100.00
38939;BME280;24211;49.980;19.776;2023-07-16T04:02:00;99000.63;;;22.50;100.00
38939;BME280;24211;49.980;19.776;2023-07-16T04:04:27;99009.38;;;22.60;100.00
38939;BME280;24211;49.980;19.776;2023-07-16T04:06:55;99004.00;;;22.69;100.00
38939;BME280;24211;49.980;19.776;2023-07-16T04:09:23;99006.78;;;22.77;100.00
38939;BME280;24211;49.980;19.776;2023-07-16T04:11:50;99010.03;;;22.88;100.00
38939;BME280;24211;49.980;19.776;2023-07-16T04:14:19;99006.91;;;23.03;100.00
38939;BME280;24211;49.980;19.776;2023-07-16T04:16:47;99003.78;;;23.18;100.00
38939;BME280;24211;49.980;19.776;2023-07-16T04:19:14;99013.66;;;23.36;100.00
38939;BME280;24211;49.980;19.776;2023-07-16T04:21:41;99006.16;;;23.51;100.00
38939;BME280;24211;49.980;19.776;2023-07-16T04:24:09;99009.72;;;23.60;100.00
38939;BME280;24211;49.980;19.776;2023-07-16T04:26:36;99006.38;;;23.71;100.00
38939;BME280;24211;49.980;19.776;2023-07-16T04:29:04;99007.19;;;23.89;100.00
38939;BME280;24211;49.980;19.776;2023-07-16T04:31:31;99014.34;;;24.07;100.00
38939;BME280;24211;49.980;19.776;2023-07-16T04:33:58;99012.72;;;24.23;100.00
38939;BME280;24211;49.980;19.776;2023-07-16T04:36:25;99008.56;;;24.34;100.00
38939;BME280;24211;49.980;19.776;2023-07-16T04:38:52;99027.19;;;24.49;100.00
38939;BME280;24211;49.980;19.776;2023-07-16T04:41:20;99025.88;;;24.55;100.00
38939;BME280;24211;49.980;19.776;2023-07-16T04:43:47;99029.41;;;24.64;100.00
38939;BME280;24211;49.980;19.776;2023-07-16T04:46:14;99032.63;;;24.84;100.00
38939;BME280;24211;49.980;19.776;2023-07-16T04:48:43;99029.00;;;25.09;100.00
38939;BME280;24211;49.980;19.776;2023-07-16T04:51:11;99033.78;;;25.29;100.00
38939;BME280;24211;49.980;19.776;2023-07-16T04:53:38;99031.47;;;25.48;100.00
38939;BME280;24211;49.980;19.776;2023-07-16T04:56:15;99036.56;;;25.58;100.00
38939;BME280;24211;49.980;19.776;2023-07-16T04:58:43;99048.59;;;25.66;100.00
38939;BME280;24211;49.980;19.776;2023-07-16T05:01:10;99049.97;;;25.80;100.00
38939;BME280;24211;49.980;19.776;2023-07-16T05:03:38;99052.59;;;25.97;100.00
38939;BME280;24211;49.980;19.776;2023-07-16T05:06:05;99053.78;;;26.17;100.00
38939;BME280;24211;49.980;19.776;2023-07-16T05:08:32;99055.41;;;26.39;100.00
38939;BME280;24211;49.980;19.776;2023-07-16T05:11:01;99057.78;;;26.61;100.00
38939;BME280;24211;49.980;19.776;2023-07-16T05:13:28;99060.88;;;26.80;100.00
38939;BME280;24211;49.980;19.776;2023-07-16T05:15:56;99059.09;;;26.96;100.00
38939;BME280;24211;49.980;19.776;2023-07-16T05:18:23;99059.72;;;27.14;100.00
38939;BME280;24211;49.980;19.776;2023-07-16T05:20:50;99062.84;;;27.37;100.00
38939;BME280;24211;49.980;19.776;2023-07-16T05:23:18;99058.22;;;27.61;100.00
38939;BME280;24211;49.980;19.776;2023-07-16T05:25:50;99057.53;;;27.88;100.00
38939;BME280;24211;49.980;19.776;2023-07-16T05:28:18;99060.59;;;28.11;100.00
38939;BME280;24211;49.980;19.776;2023-07-16T05:30:46;99062.53;;;28.23;100.00
38939;BME280;24211;49.980;19.776;2023-07-16T05:33:13;99053.78;;;28.45;100.00
38939;BME280;24211;49.980;19.776;2023-07-16T05:35:41;99049.09;;;28.73;100.00
38939;BME280;24211;49.980;19.776;2023-07-16T05:38:08;99054.59;;;29.01;100.00
38939;BME280;24211;49.980;19.776;2023-07-16T05:40:35;99051.34;;;29.27;100.00
38939;BME280;24211;49.980;19.776;2023-07-16T05:43:02;99055.25;;;29.41;100.00
38939;BME280;24211;49.980;19.776;2023-07-16T05:45:30;99053.75;;;29.59;100.00
38939;BME280;24211;49.980;19.776;2023-07-16T05:47:57;99059.59;;;29.73;100.00
38939;BME280;24211;49.980;19.776;2023-07-16T05:50:24;99056.00;;;29.85;98.45
38939;BME280;24211;49.980;19.776;2023-07-16T05:52:51;99066.28;;;29.88;97.78
38939;BME280;24211;49.980;19.776;2023-07-16T05:55:18;99063.91;;;29.87;100.00
38939;BME280;24211;49.980;19.776;2023-07-16T05:57:46;99066.97;;;30.01;99.87
38939;BME280;24211;49.980;19.776;2023-07-16T06:00:14;99063.31;;;30.12;100.00
38939;BME280;24211;49.980;19.776;2023-07-16T06:02:42;99059.19;;;30.22;98.34
38939;BME280;24211;49.980;19.776;2023-07-16T06:05:10;99061.28;;;30.44;96.65
38939;BME280;24211;49.980;19.776;2023-07-16T06:07:37;99053.28;;;30.77;94.06
38939;BME280;24211;49.980;19.776;2023-07-16T06:10:06;99060.38;;;31.17;94.29
38939;BME280;24211;49.980;19.776;2023-07-16T06:12:33;99060.34;;;31.58;93.56
38939;BME280;24211;49.980;19.776;2023-07-16T06:15:01;99055.34;;;31.67;87.60
38939;BME280;24211;49.980;19.776;2023-07-16T06:17:28;99063.13;;;31.85;87.31
38939;BME280;24211;49.980;19.776;2023-07-16T06:19:55;99061.63;;;32.13;89.51
38939;BME280;24211;49.980;19.776;2023-07-16T06:22:24;99064.34;;;32.40;85.80
38939;BME280;24211;49.980;19.776;2023-07-16T06:24:51;99056.88;;;32.44;84.65
38939;BME280;24211;49.980;19.776;2023-07-16T06:27:19;99061.88;;;32.61;84.67
38939;BME280;24211;49.980;19.776;2023-07-16T06:29:46;99062.06;;;32.75;83.67
38939;BME280;24211;49.980;19.776;2023-07-16T06:32:13;99057.28;;;33.05;81.85
38939;BME280;24211;49.980;19.776;2023-07-16T06:34:41;99054.59;;;33.12;79.84
38939;BME280;24211;49.980;19.776;2023-07-16T06:37:08;99055.66;;;33.44;77.42
38939;BME280;24211;49.980;19.776;2023-07-16T06:39:35;99055.06;;;33.62;76.49
38939;BME280;24211;49.980;19.776;2023-07-16T06:42:02;99056.09;;;33.94;72.77
38939;BME280;24211;49.980;19.776;2023-07-16T06:44:32;99055.53;;;34.25;71.86
38939;BME280;24211;49.980;19.776;2023-07-16T06:46:59;99061.50;;;34.31;71.02
38939;BME280;24211;49.980;19.776;2023-07-16T06:49:27;99060.41;;;34.53;70.45
38939;BME280;24211;49.980;19.776;2023-07-16T06:51:54;99065.66;;;34.61;68.63
38939;BME280;24211;49.980;19.776;2023-07-16T06:54:21;99063.66;;;34.65;67.57
38939;BME280;24211;49.980;19.776;2023-07-16T06:56:49;99066.09;;;34.84;64.82
38939;BME280;24211;49.980;19.776;2023-07-16T06:59:16;99068.59;;;35.11;60.16
38939;BME280;24211;49.980;19.776;2023-07-16T07:01:43;99063.06;;;35.39;59.17
38939;BME280;24211;49.980;19.776;2023-07-16T07:04:11;99059.16;;;35.61;57.95
38939;BME280;24211;49.980;19.776;2023-07-16T07:06:38;99056.75;;;35.74;57.95
38939;BME280;24211;49.980;19.776;2023-07-16T07:09:05;99053.59;;;35.82;57.45
38939;BME280;24211;49.980;19.776;2023-07-16T07:11:32;99063.13;;;35.81;56.38
38939;BME280;24211;49.980;19.776;2023-07-16T07:13:59;99065.09;;;35.84;55.23
38939;BME280;24211;49.980;19.776;2023-07-16T07:16:26;99060.69;;;36.19;54.19
38939;BME280;24211;49.980;19.776;2023-07-16T07:18:54;99065.78;;;36.52;51.63
38939;BME280;24211;49.980;19.776;2023-07-16T07:21:21;99072.16;;;36.56;51.30
38939;BME280;24211;49.980;19.776;2023-07-16T07:23:48;99068.44;;;36.80;50.09
38939;BME280;24211;49.980;19.776;2023-07-16T07:26:15;99073.94;;;37.01;50.05
38939;BME280;24211;49.980;19.776;2023-07-16T07:28:43;99064.19;;;37.30;48.78
38939;BME280;24211;49.980;19.776;2023-07-16T07:31:10;99076.91;;;37.39;49.10
38939;BME280;24211;49.980;19.776;2023-07-16T07:33:38;99085.09;;;37.63;47.96
38939;BME280;24211;49.980;19.776;2023-07-16T07:36:05;99090.78;;;37.97;46.82
38939;BME280;24211;49.980;19.776;2023-07-16T07:38:33;99094.34;;;38.01;46.06
38939;BME280;24211;49.980;19.776;2023-07-16T07:41:00;99092.94;;;38.23;45.83
38939;BME280;24211;49.980;19.776;2023-07-16T07:43:27;99099.13;;;38.41;46.07
38939;BME280;24211;49.980;19.776;2023-07-16T07:45:54;99106.13;;;38.19;45.70
38939;BME280;24211;49.980;19.776;2023-07-16T07:48:21;99104.38;;;37.91;45.04
38939;BME280;24211;49.980;19.776;2023-07-16T07:50:49;99114.25;;;37.52;45.42
38939;BME280;24211;49.980;19.776;2023-07-16T07:53:19;99120.66;;;37.49;44.31
38939;BME280;24211;49.980;19.776;2023-07-16T07:55:46;99124.00;;;37.15;44.56
38939;BME280;24211;49.980;19.776;2023-07-16T07:58:14;99119.56;;;37.28;43.96
38939;BME280;24211;49.980;19.776;2023-07-16T08:00:41;99129.69;;;36.87;44.31
38939;BME280;24211;49.980;19.776;2023-07-16T08:03:08;99131.34;;;36.67;43.47
38939;BME280;24211;49.980;19.776;2023-07-16T08:05:35;99128.66;;;36.25;44.19
38939;BME280;24211;49.980;19.776;2023-07-16T08:08:03;99133.84;;;36.16;43.91
38939;BME280;24211;49.980;19.776;2023-07-16T08:10:30;99134.97;;;36.43;43.89
38939;BME280;24211;49.980;19.776;2023-07-16T08:12:58;99136.16;;;36.63;42.52
38939;BME280;24211;49.980;19.776;2023-07-16T08:15:25;99140.97;;;36.41;43.02
38939;BME280;24211;49.980;19.776;2023-07-16T08:17:53;99133.81;;;36.51;43.31
38939;BME280;24211;49.980;19.776;2023-07-16T08:20:21;99130.63;;;36.31;43.67
38939;BME280;24211;49.980;19.776;2023-07-16T08:22:48;99134.16;;;36.70;43.23
38939;BME280;24211;49.980;19.776;2023-07-16T08:25:15;99128.84;;;37.01;42.44
38939;BME280;24211;49.980;19.776;2023-07-16T08:27:44;99130.03;;;37.10;42.27
38939;BME280;24211;49.980;19.776;2023-07-16T08:30:11;99134.59;;;36.48;43.12
38939;BME280;24211;49.980;19.776;2023-07-16T08:32:38;99133.75;;;36.68;42.85
38939;BME280;24211;49.980;19.776;2023-07-16T08:35:06;99138.44;;;36.89;41.70
38939;BME280;24211;49.980;19.776;2023-07-16T08:37:33;99141.72;;;36.42;41.62
38939;BME280;24211;49.980;19.776;2023-07-16T08:40:01;99139.34;;;36.37;41.92
38939;BME280;24211;49.980;19.776;2023-07-16T08:42:29;99137.75;;;36.60;41.68
38939;BME280;24211;49.980;19.776;2023-07-16T08:44:57;99145.22;;;36.81;41.52
38939;BME280;24211;49.980;19.776;2023-07-16T08:47:26;99139.31;;;36.76;41.37
38939;BME280;24211;49.980;19.776;2023-07-16T08:49:56;99142.81;;;36.90;41.48
38939;BME280;24211;49.980;19.776;2023-07-16T08:52:27;99142.19;;;37.45;40.02
38939;BME280;24211;49.980;19.776;2023-07-16T08:54:55;99149.53;;;37.10;39.75
38939;BME280;24211;49.980;19.776;2023-07-16T08:57:23;99136.75;;;37.16;40.69
38939;BME280;24211;49.980;19.776;2023-07-16T08:59:51;99131.81;;;37.45;38.87
38939;BME280;24211;49.980;19.776;2023-07-16T09:02:20;99130.63;;;37.43;38.91
38939;BME280;24211;49.980;19.776;2023-07-16T09:04:48;99132.72;;;37.24;39.58
38939;BME280;24211;49.980;19.776;2023-07-16T09:07:16;99130.56;;;37.57;39.34
38939;BME280;24211;49.980;19.776;2023-07-16T09:09:43;99117.06;;;38.00;38.41
38939;BME280;24211;49.980;19.776;2023-07-16T09:12:24;99126.78;;;37.81;38.42
38939;BME280;24211;49.980;19.776;2023-07-16T09:14:52;99114.84;;;37.84;38.61
38939;BME280;24211;49.980;19.776;2023-07-16T09:17:24;99119.41;;;38.08;37.76
38939;BME280;24211;49.980;19.776;2023-07-16T09:19:53;99124.38;;;37.86;38.18
38939;BME280;24211;49.980;19.776;2023-07-16T09:22:20;99123.16;;;38.35;38.03
38939;BME280;24211;49.980;19.776;2023-07-16T09:24:48;99116.88;;;38.58;37.82
38939;BME280;24211;49.980;19.776;2023-07-16T09:27:15;99120.47;;;38.58;37.62
38939;BME280;24211;49.980;19.776;2023-07-16T09:29:43;99118.38;;;39.00;37.26
38939;BME280;24211;49.980;19.776;2023-07-16T09:32:10;99115.19;;;39.01;36.99
38939;BME280;24211;49.980;19.776;2023-07-16T09:34:37;99115.22;;;38.98;37.28
38939;BME280;24211;49.980;19.776;2023-07-16T09:37:05;99119.78;;;39.15;37.24
38939;BME280;24211;49.980;19.776;2023-07-16T09:39:35;99114.91;;;39.22;36.83
38939;BME280;24211;49.980;19.776;2023-07-16T09:42:05;99108.53;;;39.22;36.29
38939;BME280;24211;49.980;19.776;2023-07-16T09:44:32;99119.34;;;39.20;36.04
38939;BME280;24211;49.980;19.776;2023-07-16T09:47:00;99124.47;;;39.25;36.40
38939;BME280;24211;49.980;19.776;2023-07-16T09:49:28;99111.38;;;39.45;35.54
38939;BME280;24211;49.980;19.776;2023-07-16T09:51:57;99112.34;;;39.35;35.12
38939;BME280;24211;49.980;19.776;2023-07-16T09:54:25;99116.50;;;39.24;35.36
38939;BME280;24211;49.980;19.776;2023-07-16T09:56:58;99111.56;;;39.61;35.29
38939;BME280;24211;49.980;19.776;2023-07-16T09:59:32;99114.63;;;39.94;35.01
38939;BME280;24211;49.980;19.776;2023-07-16T10:02:01;99114.16;;;40.22;35.43
38939;BME280;24211;49.980;19.776;2023-07-16T10:04:38;99111.31;;;40.45;34.49
38939;BME280;24211;49.980;19.776;2023-07-16T10:07:23;99103.16;;;40.31;33.56
38939;BME280;24211;49.980;19.776;2023-07-16T10:09:56;99112.06;;;40.26;34.12
38939;BME280;24211;49.980;19.776;2023-07-16T10:12:26;99105.72;;;40.45;33.70
38939;BME280;24211;49.980;19.776;2023-07-16T10:14:55;99110.72;;;40.34;33.43
38939;BME280;24211;49.980;19.776;2023-07-16T10:17:27;99103.72;;;40.45;33.66
38939;BME280;24211;49.980;19.776;2023-07-16T10:20:08;99099.28;;;40.87;33.63
38939;BME280;24211;49.980;19.776;2023-07-16T10:22:47;99095.09;;;41.31;33.15
38939;BME280;24211;49.980;19.776;2023-07-16T10:27:47;99099.78;;;41.38;32.19
38939;BME280;24211;49.980;19.776;2023-07-16T10:30:15;99088.09;;;41.55;32.83
38939;BME280;24211;49.980;19.776;2023-07-16T10:32:43;99095.94;;;41.64;32.49
38939;BME280;24211;49.980;19.776;2023-07-16T10:35:12;99091.03;;;41.84;31.87
38939;BME280;24211;49.980;19.776;2023-07-16T10:37:40;99087.00;;;41.85;31.51
38939;BME280;24211;49.980;19.776;2023-07-16T10:40:12;99080.63;;;42.29;29.98
38939;BME280;24211;49.980;19.776;2023-07-16T10:42:43;99086.81;;;41.92;29.79
38939;BME280;24211;49.980;19.776;2023-07-16T10:45:11;99087.88;;;41.98;28.54
38939;BME280;24211;49.980;19.776;2023-07-16T10:47:52;99088.84;;;41.92;28.96
38939;BME280;24211;49.980;19.776;2023-07-16T10:50:21;99079.78;;;42.00;29.19
38939;BME280;24211;49.980;19.776;2023-07-16T10:52:52;99083.81;;;42.15;29.44
38939;BME280;24211;49.980;19.776;2023-07-16T10:55:21;99078.41;;;42.66;28.53
38939;BME280;24211;49.980;19.776;2023-07-16T10:57:51;99087.25;;;42.52;28.15
38939;BME280;24211;49.980;19.776;2023-07-16T11:00:18;99086.16;;;42.62;29.17
38939;BME280;24211;49.980;19.776;2023-07-16T11:02:46;99072.72;;;42.82;28.62
38939;BME280;24211;49.980;19.776;2023-07-16T11:05:16;99071.06;;;42.97;28.44
38939;BME280;24211;49.980;19.776;2023-07-16T11:07:48;99073.88;;;42.97;28.56
38939;BME280;24211;49.980;19.776;2023-07-16T11:10:23;99069.19;;;43.19;27.63
38939;BME280;24211;49.980;19.776;2023-07-16T11:12:52;99064.44;;;43.54;25.97
38939;BME280;24211;49.980;19.776;2023-07-16T11:15:35;99064.44;;;43.16;26.54
38939;BME280;24211;49.980;19.776;2023-07-16T11:18:03;99067.16;;;43.32;26.05
38939;BME280;24211;49.980;19.776;2023-07-16T11:20:30;99062.41;;;43.29;26.53
38939;BME280;24211;49.980;19.776;2023-07-16T11:22:59;99060.28;;;43.46;27.62
38939;BME280;24211;49.980;19.776;2023-07-16T11:25:28;99062.63;;;43.73;26.93
38939;BME280;24211;49.980;19.776;2023-07-16T11:27:56;99060.28;;;44.05;25.82
38939;BME280;24211;49.980;19.776;2023-07-16T11:30:24;99062.75;;;44.16;25.27
38939;BME280;24211;49.980;19.776;2023-07-16T11:32:53;99059.25;;;43.78;25.79
38939;BME280;24211;49.980;19.776;2023-07-16T11:35:21;99057.03;;;43.94;25.73
38939;BME280;24211;49.980;19.776;2023-07-16T11:37:48;99056.41;;;44.46;24.93
38939;BME280;24211;49.980;19.776;2023-07-16T11:40:18;99052.03;;;44.45;24.21
38939;BME280;24211;49.980;19.776;2023-07-16T11:42:47;99052.16;;;44.42;24.28
38939;BME280;24211;49.980;19.776;2023-07-16T11:45:24;99059.75;;;44.10;24.60
38939;BME280;24211;49.980;19.776;2023-07-16T11:47:54;99049.47;;;44.04;25.23
38939;BME280;24211;49.980;19.776;2023-07-16T11:50:22;99055.53;;;44.15;25.41
38939;BME280;24211;49.980;19.776;2023-07-16T11:52:55;99043.97;;;44.13;25.14
38939;BME280;24211;49.980;19.776;2023-07-16T11:55:23;99039.03;;;44.26;25.64
38939;BME280;24211;49.980;19.776;2023-07-16T11:57:51;99054.13;;;44.32;25.80
38939;BME280;24211;49.980;19.776;2023-07-16T12:00:19;99048.34;;;44.79;24.41
38939;BME280;24211;49.980;19.776;2023-07-16T12:02:46;99047.44;;;44.60;24.40
38939;BME280;24211;49.980;19.776;2023-07-16T12:05:22;99050.84;;;44.55;24.84
38939;BME280;24211;49.980;19.776;2023-07-16T12:08:11;99054.25;;;44.50;25.80
38939;BME280;24211;49.980;19.776;2023-07-16T12:10:41;99045.88;;;44.59;25.78
38939;BME280;24211;49.980;19.776;2023-07-16T12:13:09;99041.53;;;44.67;26.26
38939;BME280;24211;49.980;19.776;2023-07-16T12:15:36;99044.91;;;44.84;26.69
38939;BME280;24211;49.980;19.776;2023-07-16T12:18:07;99040.78;;;44.98;26.47
38939;BME280;24211;49.980;19.776;2023-07-16T12:20:34;99031.34;;;45.80;24.97
38939;BME280;24211;49.980;19.776;2023-07-16T12:23:03;99041.59;;;45.47;24.97
38939;BME280;24211;49.980;19.776;2023-07-16T12:25:31;99043.03;;;45.52;24.71
38939;BME280;24211;49.980;19.776;2023-07-16T12:27:59;99042.88;;;45.55;24.77
38939;BME280;24211;49.980;19.776;2023-07-16T12:30:26;99037.28;;;45.24;25.42
38939;BME280;24211;49.980;19.776;2023-07-16T12:32:53;99029.97;;;44.96;25.77
38939;BME280;24211;49.980;19.776;2023-07-16T12:35:21;99030.63;;;44.78;26.18
38939;BME280;24211;49.980;19.776;2023-07-16T12:37:48;99032.09;;;44.61;26.59
38939;BME280;24211;49.980;19.776;2023-07-16T12:40:15;99031.53;;;44.75;26.44
38939;BME280;24211;49.980;19.776;2023-07-16T12:42:44;99026.56;;;45.50;25.32
38939;BME280;24211;49.980;19.776;2023-07-16T12:45:11;99025.41;;;46.24;24.15
38939;BME280;24211;49.980;19.776;2023-07-16T12:47:38;99029.72;;;45.61;24.25
38939;BME280;24211;49.980;19.776;2023-07-16T12:50:06;99022.16;;;45.49;24.78
38939;BME280;24211;49.980;19.776;2023-07-16T12:52:34;99024.34;;;45.36;25.46
38939;BME280;24211;49.980;19.776;2023-07-16T12:55:01;99014.59;;;44.66;26.28
38939;BME280;24211;49.980;19.776;2023-07-16T12:57:29;99022.03;;;45.13;25.84
38939;BME280;24211;49.980;19.776;2023-07-16T12:59:56;99014.59;;;45.28;25.46